< Cyclone 199901 1999 Season Cyclone 199903 >
Cyclone 199902 (ALISON)
General InformationDetailed Track InformationTrack Information on Google MapsList of All Images || ResourceGoogle EarthGE AnimationAtom FeedGeoJSON
Detalied Best Track Wind (Time Zone = UTC)
Year Month Day Hour Lat. Long. Wind (kt) Gust (kt) Direc. of Major Storm Axis Radius of Major Storm Axis (nm) Radius of Minor Storm Axis (nm) Direc. of Major Gale Axis Radius of Major Gale Axis (nm) Radius of Minor Gale Axis (nm) Image
1998 11 7 01 -10.1 98.2 23 -1 symmetric - - symmetric - - Image
1998 11 7 04 -10.2 98.4 23 -1 symmetric - - symmetric - - Image
1998 11 7 07 -10.2 98.6 27 -1 symmetric - - symmetric - - Image
1998 11 7 10 -10.3 98.8 27 -1 symmetric - - symmetric - - Image
1998 11 7 13 -10.3 98.9 29 -1 symmetric - - symmetric - - Image
1998 11 7 16 -10.4 99.0 29 -1 symmetric - - symmetric - - Image
1998 11 7 19 -10.4 99.1 33 -1 symmetric - - symmetric - - Image
1998 11 7 22 -10.5 99.2 33 -1 symmetric - - symmetric - - Image
1998 11 8 01 -10.8 99.3 35 -1 symmetric - - symmetric - - Image
1998 11 8 04 -11.2 99.2 39 -1 symmetric - - symmetric - - Image
1998 11 8 07 -11.7 99.0 41 -1 symmetric - - symmetric - - Image
1998 11 8 10 -12.0 98.6 49 -1 symmetric - - symmetric - - Image
1998 11 8 13 -12.3 98.2 54 -1 symmetric - - symmetric - - Image
1998 11 8 16 -12.5 97.7 60 -1 symmetric - - symmetric - - Image
1998 11 8 19 -12.7 97.4 64 -1 symmetric - - symmetric - - Image
1998 11 8 22 -12.9 97.0 70 -1 symmetric - - symmetric - - Image
1998 11 9 01 -13.1 96.5 76 -1 symmetric - - symmetric - - Image
1998 11 9 04 -13.2 96.0 76 -1 symmetric - - symmetric - - Image
1998 11 9 07 -13.4 95.6 80 -1 symmetric - - symmetric - - Image
1998 11 9 10 -13.7 95.2 80 -1 symmetric - - symmetric - - Image
1998 11 9 13 -14.0 94.8 80 -1 symmetric - - symmetric - - Image
1998 11 9 16 -14.3 94.5 76 -1 symmetric - - symmetric - - Image
1998 11 9 19 -14.5 94.3 76 -1 symmetric - - symmetric - - Image
1998 11 9 22 -14.7 94.0 76 -1 symmetric - - symmetric - - Image
1998 11 10 01 -15.0 93.8 76 -1 symmetric - - symmetric - - Image
1998 11 10 04 -15.2 93.6 70 -1 symmetric - - symmetric - - Image
1998 11 10 07 -15.6 93.5 70 -1 symmetric - - symmetric - - Image
1998 11 10 10 -15.9 93.4 64 -1 symmetric - - symmetric - - Image
1998 11 10 13 -16.2 93.2 64 -1 symmetric - - symmetric - - Image
1998 11 10 16 -16.4 92.9 60 -1 symmetric - - symmetric - - Image
1998 11 10 19 -16.6 92.7 60 -1 symmetric - - symmetric - - Image
1998 11 10 22 -16.9 92.5 60 -1 symmetric - - symmetric - - Image
1998 11 11 01 -17.2 92.3 54 -1 symmetric - - symmetric - - Image
1998 11 11 04 -17.5 92.1 54 -1 symmetric - - symmetric - - Image
1998 11 11 07 -17.8 92.0 54 -1 symmetric - - symmetric - - Image
1998 11 11 10 -18.0 91.9 49 -1 symmetric - - symmetric - - Image
1998 11 11 13 -18.2 91.7 49 -1 symmetric - - symmetric - - Image
1998 11 11 16 -18.4 91.6 49 -1 symmetric - - symmetric - - Image
1998 11 11 19 -18.6 91.5 49 -1 symmetric - - symmetric - - Image
1998 11 11 22 -18.7 91.4 41 -1 symmetric - - symmetric - - Image
1998 11 12 01 -18.8 91.3 41 -1 symmetric - - symmetric - - Image
1998 11 12 04 -19.0 91.2 35 -1 symmetric - - symmetric - - Image
1998 11 12 07 -19.0 91.1 35 -1 symmetric - - symmetric - - Image
1998 11 12 10 -18.8 90.9 29 -1 symmetric - - symmetric - - Image
1998 11 12 13 -18.6 90.8 27 -1 symmetric - - symmetric - - Image
1998 11 12 19 -18.1 90.7 27 -1 symmetric - - symmetric - - Image
1998 11 13 01 -17.0 90.6 19 -1 symmetric - - symmetric - - Image
1998 11 13 07 -16.4 89.8 19 -1 symmetric - - symmetric - - Image
1998 11 13 10 -15.8 88.8 19 -1 symmetric - - symmetric - - Image
< Cyclone 199901 1999 Season Cyclone 199903 >

Help